createdAt,value
2022-08-19T00:01:02.084Z,56.43
2022-08-19T00:06:05.871Z,56.84
2022-08-19T00:11:09.415Z,55.42
2022-08-19T00:16:26.090Z,55.01
2022-08-19T00:21:30.025Z,56.53
2022-08-19T00:26:34.197Z,57.95
2022-08-19T00:31:39.296Z,57.72
2022-08-19T00:36:43.512Z,59.66
2022-08-19T00:41:48.432Z,58.22
2022-08-19T00:46:57.826Z,57.52
2022-08-19T00:52:05.319Z,59.14
2022-08-19T00:57:13.634Z,59.31
2022-08-19T01:02:18.770Z,56.75
2022-08-19T01:07:22.177Z,56.83
2022-08-19T01:12:27.363Z,55.32
2022-08-19T01:17:32.198Z,53.77
2022-08-19T01:22:40.100Z,53.55
2022-08-19T01:27:45.527Z,54.08
2022-08-19T01:32:49.084Z,55.01
2022-08-19T01:37:56.554Z,57.01
2022-08-19T01:43:00.478Z,56.08
2022-08-19T01:48:04.284Z,57.97
2022-08-19T01:53:12.334Z,56.28
2022-08-19T01:58:20.068Z,55.17
2022-08-19T02:03:23.711Z,57.13
2022-08-19T02:08:29.233Z,55.39
2022-08-19T02:13:34.518Z,54.78
2022-08-19T02:18:38.719Z,57.07
2022-08-19T02:23:43.510Z,56.07
2022-08-19T02:28:47.071Z,54.34
2022-08-19T02:33:51.491Z,57.48
2022-08-19T02:38:56.904Z,56.71
2022-08-19T02:44:26.750Z,56.39
2022-08-19T02:49:26.351Z,58.51
2022-08-19T02:54:31.215Z,55.95
2022-08-19T02:59:35.836Z,54.65
2022-08-19T03:04:39.343Z,56.36
2022-08-19T03:09:44.411Z,56.09
2022-08-19T03:14:47.879Z,55.07
2022-08-19T03:19:51.363Z,57.13
2022-08-19T03:24:56.151Z,54.18
2022-08-19T03:30:00.293Z,52.91
2022-08-19T03:35:04.812Z,53.40
2022-08-19T03:40:14.486Z,53.11
2022-08-19T03:45:20.488Z,52.39
2022-08-19T03:50:25.008Z,51.89
2022-08-19T03:55:30.090Z,52.83
2022-08-19T04:00:34.294Z,54.28
2022-08-19T04:05:38.582Z,54.32
2022-08-19T04:10:43.469Z,55.82
2022-08-19T04:15:48.183Z,56.29
2022-08-19T04:20:51.688Z,55.91
2022-08-19T04:25:57.003Z,55.48
2022-08-19T04:31:00.547Z,54.72
2022-08-19T04:36:04.472Z,55.88
2022-08-19T04:41:26.879Z,57.71
2022-08-19T04:46:39.827Z,56.51
2022-08-19T04:51:45.639Z,57.08
2022-08-19T04:56:51.831Z,55.05
2022-08-19T05:01:55.278Z,54.63
2022-08-19T05:07:01.087Z,55.11
2022-08-19T05:12:07.578Z,56.53
2022-08-19T05:17:27.046Z,58.00
2022-08-19T05:22:36.700Z,56.52
2022-08-19T05:27:42.237Z,55.97
2022-08-19T05:32:45.779Z,57.39
2022-08-19T05:37:49.313Z,57.62
2022-08-19T05:42:59.777Z,55.22
2022-08-19T05:48:03.387Z,56.44
2022-08-19T05:53:07.114Z,55.28
2022-08-19T05:58:12.248Z,55.59
2022-08-19T06:03:15.719Z,56.83
2022-08-19T06:08:19.275Z,57.06
2022-08-19T06:13:24.773Z,56.24
2022-08-19T06:18:28.880Z,53.89
2022-08-19T06:23:32.521Z,55.41
2022-08-19T06:28:37.411Z,52.59
2022-08-19T06:33:40.914Z,53.02
2022-08-19T06:38:45.211Z,52.85
2022-08-19T06:43:53.979Z,54.09
2022-08-19T06:49:00.086Z,52.97
2022-08-19T06:54:05.626Z,54.77
2022-08-19T06:59:28.426Z,52.67
2022-08-19T07:04:33.562Z,52.33
2022-08-19T07:09:38.408Z,53.56
2022-08-19T07:14:44.180Z,51.74
2022-08-19T07:19:47.711Z,52.58
2022-08-19T07:24:52.550Z,52.89
2022-08-19T07:29:59.662Z,50.72
2022-08-19T07:35:04.313Z,53.13
2022-08-19T07:40:09.266Z,52.43
2022-08-19T07:45:14.209Z,49.21
2022-08-19T07:50:19.324Z,49.54
2022-08-19T07:55:42.781Z,49.58
2022-08-19T08:00:50.750Z,49.12
2022-08-19T08:06:11.709Z,49.22
2022-08-19T08:11:15.942Z,48.54
2022-08-19T08:16:22.423Z,47.28
2022-08-19T08:21:25.895Z,49.06
2022-08-19T08:26:29.592Z,48.85
2022-08-19T08:31:39.450Z,47.01
2022-08-19T08:36:46.103Z,48.69
2022-08-19T08:42:09.867Z,45.34
2022-08-19T08:47:23.463Z,43.15
2022-08-19T08:52:32.217Z,43.26
2022-08-19T08:57:42.471Z,44.27
2022-08-19T09:02:51.010Z,42.83
2022-08-19T09:07:59.799Z,46.40
2022-08-19T09:13:10.298Z,43.38
2022-08-19T09:18:19.149Z,43.57
2022-08-19T09:23:26.680Z,42.50
2022-08-19T09:28:32.448Z,40.12
2022-08-19T09:33:37.564Z,43.21
2022-08-19T09:38:43.585Z,42.00
2022-08-19T09:43:49.151Z,40.55
2022-08-19T09:48:54.618Z,38.50
2022-08-19T09:54:02.261Z,38.00
2022-08-19T09:59:08.545Z,37.56
2022-08-19T10:04:14.636Z,37.87
2022-08-19T10:09:33.979Z,37.91
2022-08-19T10:14:38.389Z,36.93
2022-08-19T10:19:55.218Z,36.31
2022-08-19T10:24:59.281Z,36.59
2022-08-19T10:30:04.411Z,38.17
2022-08-19T10:35:16.211Z,35.91
2022-08-19T10:40:25.562Z,35.75
2022-08-19T10:45:29.058Z,36.08
2022-08-19T10:50:48.342Z,35.48
2022-08-19T10:56:09.610Z,34.27
2022-08-19T11:01:13.094Z,32.44
2022-08-19T11:06:18.443Z,32.74
2022-08-19T11:11:22.361Z,31.82
2022-08-19T11:16:28.639Z,31.06
2022-08-19T11:21:36.044Z,31.99
2022-08-19T11:26:40.662Z,34.90
2022-08-19T11:31:45.857Z,31.95
2022-08-19T11:36:52.311Z,31.09
2022-08-19T11:41:56.063Z,30.84
2022-08-19T11:47:09.229Z,31.17
2022-08-19T11:52:14.349Z,30.20
2022-08-19T11:57:17.853Z,29.72
2022-08-19T12:02:22.569Z,29.73
2022-08-19T12:07:27.509Z,29.04
2022-08-19T12:12:30.945Z,28.47
2022-08-19T12:17:34.622Z,29.47
2022-08-19T12:22:40.226Z,27.33
2022-08-19T12:27:49.644Z,28.26
2022-08-19T12:32:57.127Z,28.01
2022-08-19T12:38:03.659Z,28.78
2022-08-19T12:43:07.665Z,29.62
2022-08-19T12:48:33.730Z,27.77
2022-08-19T12:53:39.233Z,27.58
2022-08-19T12:58:50.452Z,26.62
2022-08-19T13:03:54.661Z,30.16
2022-08-19T13:08:59.861Z,27.51
2022-08-19T13:14:04.773Z,27.52
2022-08-19T13:19:08.488Z,27.58
2022-08-19T13:24:13.419Z,29.08
2022-08-19T13:29:34.432Z,29.36
2022-08-19T13:34:38.004Z,26.62
2022-08-19T13:39:42.894Z,25.54
2022-08-19T14:12:38.992Z,30.17
2022-08-19T14:22:58.444Z,27.32
2022-08-19T14:28:02.586Z,25.09
2022-08-19T14:33:07.963Z,25.87
2022-08-19T14:38:18.190Z,26.99
2022-08-19T14:43:31.624Z,25.64
2022-08-19T14:48:35.091Z,25.45
2022-08-19T14:53:40.424Z,24.21
2022-08-19T14:58:44.874Z,24.02
2022-08-19T15:03:49.081Z,25.83
2022-08-19T15:08:55.341Z,23.83
2022-08-19T15:13:58.951Z,25.45
2022-08-19T15:19:02.435Z,25.11
2022-08-19T15:24:08.067Z,24.68
2022-08-19T15:29:13.922Z,24.13
2022-08-19T15:34:17.782Z,23.74
2022-08-19T15:39:22.662Z,26.68
2022-08-19T15:44:26.090Z,27.22
2022-08-19T15:49:29.562Z,25.74
2022-08-19T15:54:35.009Z,25.26
2022-08-19T15:59:56.959Z,25.91
2022-08-19T16:05:23.299Z,25.26
2022-08-19T16:10:28.599Z,26.78
2022-08-19T16:15:33.661Z,25.77
2022-08-19T16:20:37.171Z,25.28
2022-08-19T16:25:42.178Z,26.00
2022-08-19T16:30:48.506Z,24.81
2022-08-19T16:36:00.306Z,26.46
2022-08-19T16:41:14.352Z,26.34
2022-08-19T16:46:18.554Z,26.58
2022-08-19T16:51:22.682Z,25.89
2022-08-19T16:56:28.891Z,25.48
2022-08-19T17:01:32.555Z,24.48
2022-08-19T17:06:37.456Z,24.32
2022-08-19T17:11:42.274Z,26.03
2022-08-19T17:16:45.802Z,25.88
2022-08-19T17:21:49.217Z,26.13
2022-08-19T17:26:54.024Z,26.44
2022-08-19T17:31:57.480Z,27.50
2022-08-19T17:37:00.914Z,27.04
2022-08-19T17:42:06.163Z,27.01
2022-08-19T17:47:12.582Z,27.09
2022-08-19T17:52:16.195Z,27.24
2022-08-19T17:57:20.975Z,28.01
2022-08-19T18:02:24.574Z,27.28
2022-08-19T18:07:28.219Z,27.49
2022-08-19T18:12:33.748Z,27.98
2022-08-19T18:17:37.604Z,27.71
2022-08-19T18:22:42.947Z,28.46
2022-08-19T18:27:47.820Z,28.29
2022-08-19T18:32:52.635Z,28.33
2022-08-19T18:37:57.220Z,28.96
2022-08-19T18:43:19.393Z,29.14
2022-08-19T18:48:40.682Z,30.24
2022-08-19T18:53:46.534Z,29.83
2022-08-19T18:58:51.293Z,30.30
2022-08-19T19:03:55.590Z,30.22
2022-08-19T19:08:59.895Z,30.28
2022-08-19T19:14:10.343Z,30.68
2022-08-19T19:19:14.337Z,30.25
2022-08-19T19:24:27.235Z,31.64
2022-08-19T19:29:32.091Z,30.92
2022-08-19T19:34:37.886Z,31.98
2022-08-19T19:39:46.457Z,32.06
2022-08-19T19:44:54.747Z,33.41
2022-08-19T19:50:13.752Z,33.46
2022-08-19T19:55:18.856Z,35.09
2022-08-19T20:00:23.747Z,34.51
2022-08-19T20:05:27.447Z,34.69
2022-08-19T20:10:32.252Z,34.76
2022-08-19T20:15:42.340Z,35.20
2022-08-19T20:20:50.142Z,34.93
2022-08-19T20:25:54.296Z,35.44
2022-08-19T20:30:59.180Z,35.01
2022-08-19T20:36:03.075Z,35.91
2022-08-19T20:41:07.439Z,35.95
2022-08-19T20:46:12.535Z,36.76
2022-08-19T20:51:16.714Z,36.68
2022-08-19T20:56:20.304Z,36.86
2022-08-19T21:01:25.379Z,37.51
2022-08-19T21:06:28.963Z,37.05
2022-08-19T21:11:33.127Z,37.59
2022-08-19T21:16:37.958Z,37.36
2022-08-19T21:21:41.464Z,37.65
2022-08-19T21:26:49.392Z,38.03
2022-08-19T21:31:55.951Z,39.14
2022-08-19T21:36:59.450Z,39.66
2022-08-19T21:42:02.940Z,41.00
2022-08-19T21:47:08.111Z,39.22
2022-08-19T21:52:14.317Z,40.48
2022-08-19T21:57:18.033Z,40.82
2022-08-19T22:02:22.839Z,40.23
2022-08-19T22:07:26.442Z,41.31
2022-08-19T22:12:31.659Z,41.60
2022-08-19T22:17:37.808Z,41.13
2022-08-19T22:22:47.282Z,42.15
2022-08-19T22:27:51.012Z,42.46
2022-08-19T22:33:02.155Z,42.42
2022-08-19T22:38:07.157Z,42.26
2022-08-19T22:43:15.003Z,42.00
2022-08-19T22:48:22.979Z,42.45
2022-08-19T22:53:28.039Z,41.27
2022-08-19T22:58:31.544Z,43.60
2022-08-19T23:03:36.671Z,43.69
2022-08-19T23:08:40.099Z,43.69
2022-08-19T23:13:43.667Z,43.45
2022-08-19T23:18:48.421Z,44.53
2022-08-19T23:23:52.012Z,44.32
2022-08-19T23:29:13.034Z,45.14
2022-08-19T23:34:17.962Z,45.16
2022-08-19T23:39:21.418Z,44.66
2022-08-19T23:44:25.245Z,45.72
2022-08-19T23:49:31.310Z,44.04
2022-08-19T23:54:43.750Z,45.85
2022-08-19T23:59:47.517Z,45.68
